Aérodrome :
LOGIN :

S'inscrire | Disclaimer

   EN    FR    IT 

 










Légende :    VFR   VFR Marginal   IFR   IFR Intensif   IFR Très Intensif
Visi : 
Plafond : 
>= 8 km
>= 3000ft
5 à 8 km
1000 à 3000 ft
1500m à 5 km
500 à 1000 ft
800 à 1500m
200 à 500 ft
< 800m
< 200 ft
Symboles :   Orages  Brouillard  Fortes neiges  Fortes précipitations  Vent > 20 kt
SIGMETs :   Divers  Orages  Givrage  Turbulence  Onde Orograph.  Cendres Volcan.






- Altitude de l'aérodrome : 219 ft
- Code IATA : DNR


LFRD - Dinard

DERNIER METAR :
  • 230300Z AUTO 06007KT 9999 ///TCU 12/10 Q1015 BECMG BKN015

METARs EXPIRÉS :
  • 230230Z AUTO 04007KT CAVOK 12/10 Q1016 NOSIG
  • 230200Z AUTO 04007KT CAVOK 12/10 Q1016 NOSIG
  • 230130Z AUTO 03006KT CAVOK 12/10 Q1017 NOSIG
  • 230100Z AUTO 04004KT CAVOK 12/09 Q1017 NOSIG
  • 230030Z AUTO 03004KT CAVOK 11/10 Q1018 NOSIG

TAF TAF LFRD
Valide du 23 à 00h jusqu'au 24 à 00h UTC


222300Z 2300/2324 04008KT CAVOK
TEMPO 2302/2306 -RA
BECMG 2303/2306 BKN015
TEMPO 2306/2324 3000 RADZ BKN005
ATIS : +33 2 99 16 81 50



MET'MAP, la Météo Aéronautique d'un coup d'oeil ! - Copyright ORBIFLY Décembre 2007 - Disclaimer

ORBIFLY MET'MAP TEAM :

Programmation & Développement : Alexandra Zaïnal
Conception & Développement : Baudouin d'Aumeries
Co-Programmation & Développement : Marc-Olivier Méhu
Soutien technique & logistique : Manuel Goepfert

Contact : metmap@orbifly.com




SOURCES & CREDITS :

   NOAA